createdAt,value
2018-04-16T00:02:24.442Z,61.07
2018-04-16T00:04:52.018Z,58.33
2018-04-16T00:07:19.586Z,57.93
2018-04-16T00:09:47.167Z,60.87
2018-04-16T00:12:15.498Z,58.17
2018-04-16T00:14:43.110Z,57.17
2018-04-16T00:17:10.685Z,62.33
2018-04-16T00:19:38.251Z,61.33
2018-04-16T00:22:05.835Z,58.17
2018-04-16T00:24:33.423Z,59.27
2018-04-16T00:27:01.794Z,59.17
2018-04-16T00:29:29.366Z,63.20
2018-04-16T00:32:02.673Z,59.37
2018-04-16T00:34:35.995Z,64.40
2018-04-16T00:40:13.041Z,64.60
2018-04-16T00:42:46.922Z,68.00
2018-04-16T00:45:20.172Z,67.17
2018-04-16T00:47:53.334Z,72.47
2018-04-16T00:50:27.358Z,70.47
2018-04-16T00:53:00.658Z,78.20
2018-04-16T00:55:33.790Z,63.10
2018-04-16T00:58:06.935Z,64.80
2018-04-16T01:00:40.131Z,61.97
2018-04-16T01:03:13.406Z,59.23
2018-04-16T01:05:47.287Z,56.80
2018-04-16T01:08:21.131Z,70.60
2018-04-16T01:10:54.278Z,59.90
2018-04-16T01:13:27.514Z,59.53
2018-04-16T01:16:00.710Z,64.13
2018-04-16T01:18:33.830Z,74.87
2018-04-16T01:21:07.070Z,67.97
2018-04-16T01:23:40.411Z,64.90
2018-04-16T01:26:13.506Z,72.10
2018-04-16T01:28:46.647Z,68.57
2018-04-16T01:31:19.769Z,71.20
2018-04-16T01:33:52.946Z,75.33
2018-04-16T01:36:26.102Z,70.63
2018-04-16T01:38:59.270Z,70.80
2018-04-16T01:41:32.390Z,76.67
2018-04-16T01:44:05.534Z,72.73
2018-04-16T01:46:38.834Z,83.23
2018-04-16T01:49:11.994Z,76.13
2018-04-16T01:51:45.169Z,81.43
2018-04-16T01:54:18.301Z,87.63
2018-04-16T01:56:51.556Z,91.27
2018-04-16T01:59:24.846Z,92.97
2018-04-16T02:01:57.940Z,92.37
2018-04-16T02:04:31.129Z,102.93
2018-04-16T02:07:04.228Z,95.53
2018-04-16T02:09:37.420Z,98.33
2018-04-16T02:12:10.640Z,98.17
2018-04-16T02:14:43.881Z,103.20
2018-04-16T02:17:17.048Z,102.43
2018-04-16T02:19:50.192Z,97.03
2018-04-16T02:22:23.432Z,95.67
2018-04-16T02:24:56.712Z,111.17
2018-04-16T02:27:29.824Z,120.37
2018-04-16T02:30:02.892Z,111.40
2018-04-16T02:32:36.036Z,95.07
2018-04-16T02:35:09.133Z,123.20
2018-04-16T02:37:42.253Z,95.50
2018-04-16T02:40:15.535Z,96.63
2018-04-16T02:42:48.657Z,89.93
2018-04-16T02:45:21.996Z,99.83
2018-04-16T02:47:55.268Z,101.43
2018-04-16T02:50:28.411Z,98.47
2018-04-16T02:53:01.665Z,91.77
2018-04-16T02:55:34.856Z,93.27
2018-04-16T02:58:08.152Z,84.80
2018-04-16T03:00:42.312Z,94.17
2018-04-16T03:03:15.506Z,98.43
2018-04-16T03:05:48.649Z,88.10
2018-04-16T03:08:21.881Z,81.27
2018-04-16T03:10:55.000Z,82.60
2018-04-16T03:13:28.273Z,110.93
2018-04-16T03:16:01.515Z,79.17
2018-04-16T03:18:35.388Z,95.87
2018-04-16T03:21:08.480Z,94.47
2018-04-16T03:23:41.616Z,86.53
2018-04-16T03:29:15.941Z,79.97
2018-04-16T03:31:49.807Z,89.13
2018-04-16T03:41:12.032Z,94.37
2018-04-16T03:43:45.150Z,122.00
2018-04-16T03:46:28.416Z,115.20
2018-04-16T03:49:01.701Z,140.20
2018-04-16T03:51:34.072Z,147.13
2018-04-16T03:54:01.640Z,161.97
2018-04-16T03:56:29.193Z,122.43
2018-04-16T03:58:56.780Z,132.13
2018-04-16T04:01:25.096Z,138.03
2018-04-16T04:03:52.648Z,141.87
2018-04-16T04:06:20.202Z,159.10
2018-04-16T04:08:47.757Z,166.37
2018-04-16T04:11:15.344Z,142.47
2018-04-16T04:13:42.907Z,144.07
2018-04-16T04:16:10.464Z,127.50
2018-04-16T04:18:38.022Z,170.90
2018-04-16T04:21:05.577Z,140.70
2018-04-16T04:23:44.986Z,134.93
2018-04-16T04:26:24.152Z,131.67
2018-04-16T04:29:04.297Z,124.93
2018-04-16T04:31:31.860Z,114.50
2018-04-16T04:33:59.419Z,111.43
2018-04-16T04:36:27.024Z,130.83
2018-04-16T04:38:54.581Z,146.13
2018-04-16T04:41:22.136Z,120.60
2018-04-16T04:43:49.696Z,105.20
2018-04-16T04:46:17.252Z,121.00
2018-04-16T04:48:44.836Z,103.33
2018-04-16T04:51:12.412Z,114.00
2018-04-16T04:53:39.968Z,101.57
2018-04-16T04:56:07.529Z,107.80
2018-04-16T04:58:35.086Z,124.83
2018-04-16T05:01:02.654Z,110.47
2018-04-16T05:03:30.240Z,123.77
2018-04-16T05:05:58.560Z,126.37
2018-04-16T05:08:26.127Z,129.20
2018-04-16T05:10:53.684Z,133.87
2018-04-16T05:13:21.240Z,121.73
2018-04-16T05:15:48.812Z,106.03
2018-04-16T05:18:16.370Z,98.20
2018-04-16T05:20:43.932Z,102.03
2018-04-16T05:23:11.488Z,98.07
2018-04-16T05:25:39.059Z,101.73
2018-04-16T05:28:06.651Z,101.87
2018-04-16T05:30:34.979Z,112.73
2018-04-16T05:33:02.545Z,104.23
2018-04-16T05:35:30.112Z,112.57
2018-04-16T05:37:57.670Z,107.10
2018-04-16T05:40:25.257Z,112.60
2018-04-16T05:42:52.816Z,103.63
2018-04-16T05:45:20.373Z,107.60
2018-04-16T05:47:48.702Z,89.60
2018-04-16T05:50:16.256Z,89.50
2018-04-16T05:52:43.852Z,75.40
2018-04-16T05:55:11.412Z,88.33
2018-04-16T05:57:39.729Z,76.90
2018-04-16T06:00:07.283Z,75.57
2018-04-16T06:02:34.837Z,69.90
2018-04-16T06:05:02.420Z,61.13
2018-04-16T06:07:29.971Z,64.33
2018-04-16T06:09:57.520Z,57.43
2018-04-16T06:12:25.077Z,60.97
2018-04-16T06:14:52.660Z,60.57
2018-04-16T06:17:20.240Z,61.50
2018-04-16T06:19:47.788Z,65.97
2018-04-16T06:22:15.349Z,65.63
2018-04-16T06:24:42.911Z,59.20
2018-04-16T06:27:10.473Z,62.00
2018-04-16T06:29:38.052Z,59.20
2018-04-16T06:32:05.616Z,64.70
2018-04-16T06:34:33.176Z,65.30
2018-04-16T06:37:00.773Z,58.10
2018-04-16T06:39:28.333Z,52.57
2018-04-16T06:41:55.916Z,50.53
2018-04-16T06:44:23.467Z,55.63
2018-04-16T06:46:51.016Z,51.30
2018-04-16T06:49:18.570Z,46.87
2018-04-16T06:51:46.120Z,48.67
2018-04-16T06:54:13.696Z,48.97
2018-04-16T06:56:41.249Z,57.07
2018-04-16T06:59:08.814Z,51.07
2018-04-16T07:01:36.391Z,49.07
2018-04-16T07:04:04.746Z,48.73
2018-04-16T07:06:32.349Z,46.90
2018-04-16T07:08:59.924Z,45.77
2018-04-16T07:11:27.492Z,49.80
2018-04-16T07:13:55.044Z,46.67
2018-04-16T07:16:22.605Z,41.73
2018-04-16T07:18:50.192Z,44.20
2018-04-16T07:21:17.744Z,36.60
2018-04-16T07:23:45.296Z,42.30
2018-04-16T07:26:12.851Z,36.70
2018-04-16T07:28:40.410Z,38.03
2018-04-16T07:31:07.991Z,40.73
2018-04-16T07:33:35.550Z,37.60
2018-04-16T07:36:03.126Z,38.77
2018-04-16T07:38:30.684Z,39.20
2018-04-16T07:40:58.999Z,37.93
2018-04-16T07:43:26.584Z,42.10
2018-04-16T07:45:54.152Z,33.43
2018-04-16T07:48:21.712Z,35.53
2018-04-16T07:50:49.270Z,40.93
2018-04-16T07:53:16.826Z,36.17
2018-04-16T07:55:44.423Z,41.63
2018-04-16T07:58:11.985Z,34.57
2018-04-16T08:00:39.536Z,34.90
2018-04-16T08:03:07.096Z,35.60
2018-04-16T08:05:34.645Z,36.87
2018-04-16T08:08:02.988Z,29.03
2018-04-16T08:10:30.552Z,39.60
2018-04-16T08:12:58.109Z,32.23
2018-04-16T08:15:25.660Z,36.33
2018-04-16T08:17:53.224Z,33.37
2018-04-16T08:20:20.807Z,33.77
2018-04-16T08:22:49.136Z,37.57
2018-04-16T08:25:16.700Z,26.17
2018-04-16T08:27:44.264Z,28.10
2018-04-16T08:30:11.826Z,26.17
2018-04-16T08:32:39.424Z,27.27
2018-04-16T08:35:06.984Z,28.17
2018-04-16T08:37:34.536Z,26.13
2018-04-16T08:40:02.867Z,23.77
2018-04-16T08:42:30.424Z,27.70
2018-04-16T08:44:58.000Z,30.10
2018-04-16T08:47:25.557Z,26.33
2018-04-16T08:49:53.112Z,30.53
2018-04-16T08:52:20.672Z,28.53
2018-04-16T08:54:48.221Z,34.07
2018-04-16T08:57:15.797Z,26.67
2018-04-16T08:59:43.376Z,26.30
2018-04-16T09:02:10.946Z,25.97
2018-04-16T09:04:38.512Z,25.73
2018-04-16T09:07:06.072Z,25.70
2018-04-16T09:09:33.649Z,25.73
2018-04-16T09:12:01.211Z,26.43
2018-04-16T09:14:28.760Z,25.70
2018-04-16T09:16:56.316Z,24.90
2018-04-16T09:19:23.870Z,26.07
2018-04-16T09:21:51.448Z,24.30
2018-04-16T09:24:19.009Z,27.97
2018-04-16T09:26:46.561Z,27.53
2018-04-16T09:29:14.117Z,23.77
2018-04-16T09:31:41.672Z,26.17
2018-04-16T09:34:09.257Z,25.20
2018-04-16T09:36:36.825Z,21.17
2018-04-16T09:39:07.264Z,26.10
2018-04-16T09:41:34.820Z,25.13
2018-04-16T09:44:03.153Z,25.23
2018-04-16T09:46:30.728Z,28.20
2018-04-16T09:48:58.280Z,24.97
2018-04-16T09:51:25.837Z,28.13
2018-04-16T09:53:53.421Z,21.67
2018-04-16T09:56:20.980Z,26.67
2018-04-16T09:58:48.556Z,26.03
2018-04-16T10:01:21.875Z,19.53
2018-04-16T10:03:49.460Z,26.50
2018-04-16T10:06:17.022Z,25.47
2018-04-16T10:08:44.584Z,22.63
2018-04-16T10:11:12.141Z,23.87
2018-04-16T10:13:39.696Z,24.60
2018-04-16T10:16:07.280Z,23.30
2018-04-16T10:18:34.848Z,20.97
2018-04-16T10:21:02.421Z,24.13
2018-04-16T10:23:30.020Z,21.40
2018-04-16T10:25:57.580Z,21.40
2018-04-16T10:28:25.165Z,24.07
2018-04-16T10:30:52.719Z,26.43
2018-04-16T10:33:20.272Z,23.07
2018-04-16T10:35:47.849Z,29.53
2018-04-16T10:38:15.418Z,22.97
2018-04-16T10:40:43.000Z,24.83
2018-04-16T10:43:10.553Z,22.40
2018-04-16T10:45:38.128Z,21.50
2018-04-16T10:48:05.708Z,24.00
2018-04-16T10:50:33.273Z,25.43
2018-04-16T10:53:00.836Z,21.37
2018-04-16T10:55:28.420Z,25.57
2018-04-16T10:57:55.976Z,24.97
2018-04-16T11:00:23.535Z,26.33
2018-04-16T11:02:51.856Z,23.23
2018-04-16T11:05:19.412Z,28.53
2018-04-16T11:07:46.964Z,20.87
2018-04-16T11:10:14.530Z,23.47
2018-04-16T11:12:42.084Z,23.43
2018-04-16T11:15:09.664Z,22.83
2018-04-16T11:17:37.220Z,28.70
2018-04-16T11:20:04.784Z,26.13
2018-04-16T11:22:32.384Z,23.73
2018-04-16T11:24:59.943Z,29.60
2018-04-16T11:27:28.276Z,24.03
2018-04-16T11:29:55.840Z,26.07
2018-04-16T11:32:23.431Z,23.47
2018-04-16T11:34:51.012Z,25.50
2018-04-16T11:37:18.574Z,21.37
2018-04-16T11:39:46.133Z,21.50
2018-04-16T11:42:13.688Z,20.87
2018-04-16T11:44:41.250Z,21.60
2018-04-16T11:47:08.841Z,22.07
2018-04-16T11:49:36.398Z,19.47
2018-04-16T11:52:03.957Z,26.10
2018-04-16T11:54:31.516Z,23.87
2018-04-16T11:56:59.076Z,20.80
2018-04-16T11:59:26.661Z,23.23
2018-04-16T12:01:54.266Z,18.90
2018-04-16T12:04:21.905Z,21.33
2018-04-16T12:06:49.417Z,23.13
2018-04-16T12:09:16.976Z,22.63
2018-04-16T12:11:44.557Z,23.70
2018-04-16T12:14:12.118Z,18.97
2018-04-16T12:16:40.486Z,20.80
2018-04-16T12:19:08.024Z,23.50
2018-04-16T12:21:35.580Z,20.77
2018-04-16T12:24:03.160Z,19.30
2018-04-16T12:26:31.487Z,21.03
2018-04-16T12:28:59.062Z,19.10
2018-04-16T12:31:26.624Z,20.63
2018-04-16T12:33:54.226Z,15.67
2018-04-16T12:36:22.568Z,24.50
2018-04-16T12:38:50.124Z,21.40
2018-04-16T12:41:17.696Z,19.73
2018-04-16T12:43:45.251Z,25.23
2018-04-16T12:46:12.817Z,26.60
2018-04-16T12:48:41.172Z,23.90
2018-04-16T12:51:08.736Z,25.73
2018-04-16T12:53:36.294Z,18.60
2018-04-16T12:56:03.848Z,23.70
2018-04-16T12:58:31.409Z,27.13
2018-04-16T13:00:59.232Z,24.27
2018-04-16T13:03:26.798Z,23.37
2018-04-16T13:05:54.360Z,20.37
2018-04-16T13:08:21.921Z,21.90
2018-04-16T13:10:49.909Z,23.50
2018-04-16T13:13:17.509Z,21.77
2018-04-16T13:15:45.064Z,20.43
2018-04-16T13:18:13.391Z,23.20
2018-04-16T13:20:40.964Z,21.50
2018-04-16T13:23:08.532Z,20.63
2018-04-16T13:25:36.112Z,19.70
2018-04-16T13:28:04.436Z,19.80
2018-04-16T13:30:31.991Z,18.83
2018-04-16T13:32:59.555Z,19.93
2018-04-16T13:35:27.112Z,22.37
2018-04-16T13:37:54.695Z,17.30
2018-04-16T13:40:22.258Z,21.20
2018-04-16T13:42:49.817Z,24.57
2018-04-16T13:45:17.376Z,20.17
2018-04-16T13:47:44.936Z,19.17
2018-04-16T13:50:12.547Z,19.43
2018-04-16T13:52:40.109Z,22.07
2018-04-16T13:55:07.665Z,18.93
2018-04-16T13:57:35.225Z,17.93
2018-04-16T14:00:02.789Z,22.03
2018-04-16T14:02:30.372Z,18.37
2018-04-16T14:04:57.928Z,18.47
2018-04-16T14:07:25.480Z,17.13
2018-04-16T14:09:53.048Z,38.00
2018-04-16T14:12:20.610Z,30.60
2018-04-16T14:14:48.192Z,20.87
2018-04-16T14:17:15.747Z,23.90
2018-04-16T14:19:44.068Z,28.57
2018-04-16T14:22:11.622Z,23.90
2018-04-16T14:24:39.173Z,23.30
2018-04-16T14:27:06.751Z,25.43
2018-04-16T14:29:34.376Z,22.87
2018-04-16T14:32:01.903Z,22.03
2018-04-16T14:34:29.461Z,17.23
2018-04-16T14:36:57.787Z,22.77
2018-04-16T14:39:25.372Z,21.37
2018-04-16T14:41:52.944Z,18.83
2018-04-16T14:44:20.516Z,19.00
2018-04-16T14:46:48.838Z,20.37
2018-04-16T14:49:16.400Z,21.93
2018-04-16T14:51:43.981Z,22.57
2018-04-16T14:54:11.541Z,19.83
2018-04-16T14:56:39.147Z,16.80
2018-04-16T14:59:06.669Z,19.03
2018-04-16T15:01:34.224Z,19.07
2018-04-16T15:04:01.809Z,15.57
2018-04-16T15:06:29.364Z,14.10
2018-04-16T15:08:56.916Z,17.97
2018-04-16T15:11:25.240Z,16.27
2018-04-16T15:13:52.792Z,15.03
2018-04-16T15:16:20.364Z,19.90
2018-04-16T15:18:47.928Z,19.20
2018-04-16T15:21:15.479Z,16.67
2018-04-16T15:23:43.032Z,20.10
2018-04-16T15:26:10.583Z,14.47
2018-04-16T15:28:38.175Z,20.43
2018-04-16T15:31:05.771Z,15.50
2018-04-16T15:33:33.328Z,17.33
2018-04-16T15:36:00.924Z,18.80
2018-04-16T15:38:29.244Z,18.37
2018-04-16T15:40:56.820Z,17.07
2018-04-16T15:43:24.378Z,14.80
2018-04-16T15:45:51.948Z,20.03
2018-04-16T15:48:19.497Z,17.30
2018-04-16T15:50:47.052Z,17.27
2018-04-16T15:53:14.633Z,10.37
2018-04-16T15:55:42.202Z,17.97
2018-04-16T15:58:09.755Z,16.50
2018-04-16T16:00:37.329Z,16.47
2018-04-16T16:03:04.885Z,14.60
2018-04-16T16:05:32.473Z,16.97
2018-04-16T16:08:00.032Z,14.87
2018-04-16T16:10:27.591Z,15.73
2018-04-16T16:12:55.915Z,20.87
2018-04-16T16:15:23.472Z,16.50
2018-04-16T16:17:51.050Z,15.43
2018-04-16T16:20:18.634Z,17.07
2018-04-16T16:22:46.198Z,13.87
2018-04-16T16:25:13.791Z,13.30
2018-04-16T16:27:41.370Z,20.63
2018-04-16T16:30:08.953Z,17.23
2018-04-16T16:32:36.510Z,16.87
2018-04-16T16:35:04.061Z,18.07
2018-04-16T16:37:31.621Z,17.70
2018-04-16T16:39:59.189Z,22.40
2018-04-16T16:42:26.780Z,18.43
2018-04-16T16:44:54.336Z,17.53
2018-04-16T16:47:21.896Z,17.27
2018-04-16T16:49:49.563Z,17.17
2018-04-16T16:52:17.118Z,15.57
2018-04-16T16:54:45.464Z,19.87
2018-04-16T16:57:13.015Z,17.50
2018-04-16T16:59:40.572Z,13.77
2018-04-16T17:02:08.134Z,14.73
2018-04-16T17:04:35.692Z,16.67
2018-04-16T17:07:03.276Z,15.97
2018-04-16T17:09:30.840Z,15.73
2018-04-16T17:11:59.157Z,14.57
2018-04-16T17:14:26.705Z,13.50
2018-04-16T17:16:54.268Z,14.87
2018-04-16T17:19:21.855Z,15.77
2018-04-16T17:21:49.419Z,12.23
2018-04-16T17:24:17.731Z,13.50
2018-04-16T17:26:45.289Z,13.43
2018-04-16T17:29:13.310Z,15.70
2018-04-16T17:31:40.982Z,12.10
2018-04-16T17:34:09.323Z,13.83
2018-04-16T17:36:36.876Z,14.10
2018-04-16T17:39:07.168Z,14.53
2018-04-16T17:41:34.728Z,13.97
2018-04-16T17:44:02.304Z,16.57
2018-04-16T17:46:29.852Z,12.17
2018-04-16T17:48:57.408Z,14.93
2018-04-16T17:51:24.984Z,10.53
2018-04-16T17:53:52.576Z,11.07
2018-04-16T17:56:20.132Z,10.00
2018-04-16T17:58:47.680Z,9.27
2018-04-16T18:01:15.232Z,10.40
2018-04-16T18:03:42.785Z,17.50
2018-04-16T18:06:10.332Z,10.77
2018-04-16T18:08:37.890Z,11.63
2018-04-16T18:11:05.444Z,9.90
2018-04-16T18:13:32.992Z,11.23
2018-04-16T18:16:00.540Z,10.67
2018-04-16T18:18:28.117Z,9.60
2018-04-16T18:20:55.677Z,10.13
2018-04-16T18:23:23.232Z,10.70
2018-04-16T18:25:50.813Z,15.50
2018-04-16T18:28:18.362Z,11.67
2018-04-16T18:30:46.979Z,8.50
2018-04-16T18:33:15.731Z,11.23
2018-04-16T18:35:43.369Z,14.40
2018-04-16T18:38:10.920Z,9.77
2018-04-16T18:40:38.491Z,10.60
2018-04-16T18:43:06.060Z,10.67
2018-04-16T18:45:33.621Z,12.70
2018-04-16T18:48:01.242Z,10.67
2018-04-16T18:50:28.764Z,16.73
2018-04-16T18:52:56.316Z,11.53
2018-04-16T18:55:23.898Z,10.70
2018-04-16T18:57:51.448Z,10.63
2018-04-16T19:00:19.001Z,10.40
2018-04-16T19:02:46.553Z,10.83
2018-04-16T19:05:14.109Z,10.07
2018-04-16T19:07:41.743Z,10.47
2018-04-16T19:10:09.305Z,11.07
2018-04-16T19:12:36.855Z,9.93
2018-04-16T19:15:04.406Z,8.23
2018-04-16T19:17:31.957Z,9.43
2018-04-16T19:19:59.530Z,9.50
2018-04-16T19:22:27.076Z,11.23
2018-04-16T19:24:54.633Z,10.70
2018-04-16T19:27:27.934Z,11.53
2018-04-16T19:29:55.519Z,10.40
2018-04-16T19:32:23.080Z,8.40
2018-04-16T19:34:56.337Z,10.10
2018-04-16T19:37:23.888Z,9.00
2018-04-16T19:39:51.436Z,10.47
2018-04-16T19:42:24.656Z,10.33
2018-04-16T19:44:52.216Z,9.37
2018-04-16T19:47:19.799Z,11.33
2018-04-16T19:49:53.117Z,9.77
2018-04-16T19:52:20.712Z,10.03
2018-04-16T19:54:48.274Z,11.13
2018-04-16T19:57:22.269Z,11.17
2018-04-16T19:59:49.821Z,8.47
2018-04-16T20:02:22.876Z,13.30
2018-04-16T20:04:50.426Z,9.57
2018-04-16T20:07:18.676Z,7.23
2018-04-16T20:09:46.261Z,11.37
2018-04-16T20:12:13.816Z,9.83
2018-04-16T20:14:41.372Z,10.23
2018-04-16T20:17:08.932Z,10.03
2018-04-16T20:19:36.483Z,12.87
2018-04-16T20:22:04.064Z,8.97
2018-04-16T20:24:32.389Z,8.03
2018-04-16T20:26:59.942Z,7.93
2018-04-16T20:29:27.503Z,10.07
2018-04-16T20:31:55.059Z,8.40
2018-04-16T20:34:22.632Z,8.90
2018-04-16T20:36:50.185Z,9.70
2018-04-16T20:39:17.752Z,12.00
2018-04-16T20:41:45.320Z,9.17
2018-04-16T20:44:12.868Z,13.73
2018-04-16T20:46:40.444Z,10.10
2018-04-16T20:49:08.000Z,13.57
2018-04-16T20:51:35.548Z,8.43
2018-04-16T20:54:03.105Z,13.57
2018-04-16T20:56:30.656Z,13.10
2018-04-16T20:58:58.227Z,13.63
2018-04-16T21:01:25.781Z,10.60
2018-04-16T21:03:53.330Z,8.07
2018-04-16T21:06:20.856Z,9.30
2018-04-16T21:08:48.398Z,13.27
2018-04-16T21:11:16.708Z,11.67
2018-04-16T21:13:44.228Z,11.40
2018-04-16T21:16:12.509Z,9.80
2018-04-16T21:18:40.049Z,10.50
2018-04-16T21:21:08.333Z,9.53
2018-04-16T21:23:35.876Z,9.53
2018-04-16T21:26:04.180Z,10.03
2018-04-16T21:28:31.700Z,9.73
2018-04-16T21:30:59.224Z,10.37
2018-04-16T21:33:26.748Z,8.70
2018-04-16T21:35:54.313Z,8.93
2018-04-16T21:38:21.836Z,11.20
2018-04-16T21:40:49.356Z,8.27
2018-04-16T21:43:16.888Z,12.67
2018-04-16T21:45:44.418Z,9.60
2018-04-16T21:48:11.979Z,9.13
2018-04-16T21:50:40.265Z,9.00
2018-04-16T21:53:07.802Z,9.90
2018-04-16T21:55:36.108Z,14.07
2018-04-16T21:58:03.632Z,10.73
2018-04-16T22:00:31.954Z,9.87
2018-04-16T22:02:59.476Z,8.93
2018-04-16T22:05:27.761Z,9.97
2018-04-16T22:10:26.258Z,17.27
2018-04-16T22:12:53.796Z,9.83
2018-04-16T22:15:21.317Z,10.80
2018-04-16T22:17:48.851Z,11.03
2018-04-16T22:20:16.391Z,9.73
2018-04-16T22:22:43.922Z,9.20
2018-04-16T22:25:11.472Z,10.47
2018-04-16T22:27:39.011Z,10.37
2018-04-16T22:30:06.547Z,9.93
2018-04-16T22:32:34.070Z,9.37
2018-04-16T22:35:01.623Z,12.43
2018-04-16T22:37:29.953Z,10.13
2018-04-16T22:39:57.501Z,14.10
2018-04-16T22:42:25.060Z,11.83
2018-04-16T22:44:52.609Z,13.50
2018-04-16T22:47:20.161Z,9.50
2018-04-16T22:49:47.740Z,9.07
2018-04-16T22:52:15.301Z,9.80
2018-04-16T22:54:42.863Z,11.07
2018-04-16T22:57:10.420Z,9.70
2018-04-16T22:59:37.981Z,11.67
2018-04-16T23:02:05.562Z,10.17
2018-04-16T23:04:33.125Z,10.20
2018-04-16T23:07:00.672Z,15.00
2018-04-16T23:09:28.224Z,10.40
2018-04-16T23:11:55.780Z,9.17
2018-04-16T23:14:23.360Z,11.67
2018-04-16T23:16:51.676Z,8.07
2018-04-16T23:19:19.233Z,9.20
2018-04-16T23:21:46.798Z,12.83
2018-04-16T23:24:14.354Z,13.93
2018-04-16T23:26:41.920Z,9.57
2018-04-16T23:29:09.486Z,10.90
2018-04-16T23:31:37.036Z,9.43
2018-04-16T23:34:04.592Z,11.20
2018-04-16T23:36:32.146Z,12.40
2018-04-16T23:38:59.725Z,13.27
2018-04-16T23:41:27.288Z,13.00
2018-04-16T23:43:54.860Z,9.97
2018-04-16T23:46:22.417Z,10.20
2018-04-16T23:48:49.975Z,10.47
2018-04-16T23:51:17.576Z,10.13
2018-04-16T23:53:45.136Z,10.83
2018-04-16T23:56:12.702Z,10.03
2018-04-16T23:58:40.258Z,11.20
